Time;durP1;ratioP1;P1;durP2;ratioP2;P2;SDS_P1;SDS_P2;PMS_P1;PMS_P2;Temp;Humidity;BMP_temperature;BMP_pressure;BME280_temperature;BME280_humidity;BME280_pressure;Samples;Min_cycle;Max_cycle;Signal;HPM_P1;HPM_P2
2023/11/19 00:00:11;;;;;;;4.88;2.25;;;;;;;5.24;54.68;92936.56;4925316;29;20043;-79
2023/11/19 00:02:38;;;;;;;3.78;1.60;;;;;;;5.21;53.71;92930.84;4938256;29;20031;-79
2023/11/19 00:05:08;;;;;;;3.30;1.63;;;;;;;5.20;55.19;92926.69;4939367;29;20035;-80
2023/11/19 00:07:44;;;;;;;3.30;1.83;;;;;;;5.19;56.72;92925.09;4939615;29;20046;-79
2023/11/19 00:10:14;;;;;;;3.50;1.73;;;;;;;5.16;58.13;92930.00;4937925;29;20046;-79
2023/11/19 00:12:45;;;;;;;3.10;1.67;;;;;;;5.12;58.03;92919.31;4939727;29;20059;-79
2023/11/19 00:15:13;;;;;;;1.23;0.90;;;;;;;5.10;57.81;92920.56;4939385;29;20043;-79
2023/11/19 00:17:40;;;;;;;1.23;0.82;;;;;;;5.09;57.44;92912.00;4937637;29;20091;-79
2023/11/19 00:20:07;;;;;;;0.70;0.70;;;;;;;5.07;58.29;92903.69;4939299;29;20496;-80
2023/11/19 00:22:33;;;;;;;1.80;1.10;;;;;;;5.06;58.50;92915.06;4937462;29;20047;-80
2023/11/19 00:24:59;;;;;;;1.65;1.08;;;;;;;5.01;58.63;92912.44;4927589;29;20044;-78
2023/11/19 00:27:25;;;;;;;1.02;0.68;;;;;;;4.99;58.29;92912.66;4911561;29;20059;-78
2023/11/19 00:29:51;;;;;;;0.50;0.50;;;;;;;4.98;58.62;92902.53;4930835;29;20496;-80
2023/11/19 00:32:17;;;;;;;0.63;0.63;;;;;;;4.96;59.54;92904.59;4938204;29;20046;-80
2023/11/19 00:34:47;;;;;;;0.80;0.80;;;;;;;4.94;59.13;92901.44;4930011;29;20036;-80
2023/11/19 00:37:16;;;;;;;2.05;0.70;;;;;;;4.93;59.30;92908.44;4936115;29;20040;-79
2023/11/19 00:39:43;;;;;;;0.80;0.77;;;;;;;4.82;58.75;92898.16;4938647;29;20101;-79
2023/11/19 00:42:10;;;;;;;0.50;0.50;;;;;;;4.78;57.85;92901.25;4932701;29;20036;-79
2023/11/19 00:44:36;;;;;;;0.73;0.63;;;;;;;4.79;57.06;92908.00;4937962;29;20047;-79
2023/11/19 00:47:02;;;;;;;0.75;0.60;;;;;;;4.72;57.75;92902.19;4935157;29;20503;-79
2023/11/19 00:49:28;;;;;;;0.70;0.70;;;;;;;4.72;57.30;92891.03;4921065;29;20123;-80
2023/11/19 00:51:53;;;;;;;0.82;0.63;;;;;;;4.72;57.77;92906.59;4933016;29;20050;-80
2023/11/19 00:54:19;;;;;;;0.80;0.65;;;;;;;4.67;57.69;92912.50;4939029;29;20476;-78
2023/11/19 00:56:45;;;;;;;0.70;0.70;;;;;;;4.64;57.57;92901.81;4934873;29;20100;-80
2023/11/19 00:59:11;;;;;;;0.63;0.60;;;;;;;4.62;57.37;92899.47;4932850;29;20341;-79
2023/11/19 01:01:36;;;;;;;1.23;0.77;;;;;;;4.61;57.35;92897.13;4929929;29;20261;-80
2023/11/19 01:04:02;;;;;;;0.73;0.70;;;;;;;4.55;59.01;92898.88;4929750;29;20376;-79
2023/11/19 01:06:31;;;;;;;0.80;0.80;;;;;;;4.53;58.00;92896.50;4931439;29;20100;-79
2023/11/19 01:08:58;;;;;;;0.70;0.70;;;;;;;4.52;56.59;92888.97;4933868;29;20036;-79
2023/11/19 01:11:24;;;;;;;0.80;0.80;;;;;;;4.53;56.03;92899.09;4916837;29;20036;-79
2023/11/19 01:13:51;;;;;;;0.60;0.60;;;;;;;4.50;57.01;92896.19;4933268;29;20083;-79
2023/11/19 01:16:18;;;;;;;0.88;0.70;;;;;;;4.49;57.93;92899.81;4933937;29;20027;-79
2023/11/19 01:18:44;;;;;;;0.70;0.70;;;;;;;4.47;57.41;92896.69;4936765;29;20066;-79
2023/11/19 01:21:10;;;;;;;0.70;0.70;;;;;;;4.46;58.64;92897.69;4942948;29;20483;-79
2023/11/19 01:23:37;;;;;;;1.33;0.70;;;;;;;4.44;59.34;92891.97;4930418;29;20134;-79
2023/11/19 01:26:02;;;;;;;0.70;0.70;;;;;;;4.40;60.31;92881.28;4924662;29;20043;-79
2023/11/19 01:28:28;;;;;;;0.75;0.70;;;;;;;4.36;60.35;92886.16;4934329;29;20040;-79
2023/11/19 01:30:54;;;;;;;0.82;0.82;;;;;;;4.29;60.50;92885.53;4931460;29;20085;-79
2023/11/19 01:33:20;;;;;;;0.65;0.65;;;;;;;4.26;59.99;92891.19;4936975;29;20070;-80
2023/11/19 01:35:45;;;;;;;1.23;0.80;;;;;;;4.21;59.83;92878.19;4937632;29;20040;-79
2023/11/19 01:38:11;;;;;;;0.70;0.70;;;;;;;4.18;59.21;92878.63;4936852;29;20095;-80
2023/11/19 01:40:37;;;;;;;0.70;0.70;;;;;;;4.18;58.36;92881.22;4921056;29;20385;-79
2023/11/19 01:43:04;;;;;;;0.73;0.73;;;;;;;4.17;58.17;92877.09;4935845;29;20039;-79
2023/11/19 01:45:31;;;;;;;0.60;0.60;;;;;;;4.18;58.39;92884.59;4936744;29;20027;-79
2023/11/19 01:47:58;;;;;;;0.57;0.57;;;;;;;4.19;59.05;92882.81;4930709;29;20036;-79
2023/11/19 01:50:25;;;;;;;0.63;0.63;;;;;;;4.18;59.95;92879.41;4925792;29;20445;-79
2023/11/19 01:52:54;;;;;;;0.60;0.60;;;;;;;4.17;59.61;92882.25;4930930;29;20054;-80
2023/11/19 01:55:21;;;;;;;0.70;0.70;;;;;;;4.15;60.26;92879.91;4930795;29;20043;-79
2023/11/19 01:57:49;;;;;;;1.02;0.80;;;;;;;4.12;59.52;92867.44;4929227;29;20492;-79
2023/11/19 02:00:16;;;;;;;0.60;0.57;;;;;;;4.11;59.98;92871.03;4935991;29;20150;-79
2023/11/19 02:02:44;;;;;;;0.50;0.50;;;;;;;4.09;59.89;92869.69;4933514;29;20043;-79
2023/11/19 02:05:13;;;;;;;0.68;0.68;;;;;;;4.06;59.34;92865.00;4936912;29;20039;-79
2023/11/19 02:07:39;;;;;;;0.93;0.70;;;;;;;4.04;59.05;92859.25;4935745;29;20491;-79
2023/11/19 02:10:12;;;;;;;0.57;0.57;;;;;;;3.99;59.07;92859.19;4932927;29;20044;-79
2023/11/19 02:12:42;;;;;;;0.70;0.70;;;;;;;4.01;58.38;92863.13;4936829;29;20074;-79
2023/11/19 02:15:09;;;;;;;0.63;0.63;;;;;;;4.02;58.59;92863.88;4936061;29;20060;-80
2023/11/19 02:17:37;;;;;;;0.80;0.80;;;;;;;3.99;58.96;92851.41;4934059;29;20284;-79
2023/11/19 02:20:09;;;;;;;0.73;0.73;;;;;;;4.01;59.04;92851.94;4935729;29;20035;-79
2023/11/19 02:22:35;;;;;;;0.70;0.70;;;;;;;4.00;58.75;92852.97;4932898;29;20134;-79
2023/11/19 02:25:07;;;;;;;0.80;0.70;;;;;;;4.02;58.27;92856.13;4936359;29;20187;-79
2023/11/19 02:27:57;;;;;;;0.73;0.65;;;;;;;4.02;58.43;92858.72;4933992;29;20071;-78
2023/11/19 02:30:26;;;;;;;1.13;0.73;;;;;;;3.99;59.45;92854.78;4934362;29;20147;-80
2023/11/19 02:32:57;;;;;;;1.00;0.80;;;;;;;3.99;60.08;92844.44;4937116;29;20035;-79
2023/11/19 02:35:23;;;;;;;0.60;0.60;;;;;;;3.98;60.26;92850.63;4936031;29;20169;-78
2023/11/19 02:37:49;;;;;;;0.60;0.60;;;;;;;3.95;59.85;92843.31;4932237;29;20135;-79
2023/11/19 02:40:17;;;;;;;0.50;0.50;;;;;;;3.94;59.99;92844.34;4917957;29;20472;-78
2023/11/19 02:42:43;;;;;;;0.63;0.63;;;;;;;3.94;60.09;92842.53;4936146;29;20047;-79
2023/11/19 02:45:13;;;;;;;0.75;0.70;;;;;;;3.93;59.79;92846.13;4936337;29;20042;-80
2023/11/19 02:47:43;;;;;;;2.90;0.70;;;;;;;3.91;59.59;92834.44;4937412;29;20344;-80
2023/11/19 02:50:16;;;;;;;0.70;0.70;;;;;;;3.91;59.42;92837.81;4920485;29;20047;-79
2023/11/19 02:52:42;;;;;;;;;;;;;;;3.91;60.23;92826.69;4936945;29;20039;-79
2023/11/19 02:55:10;;;;;;;0.55;0.55;;;;;;;3.89;59.95;92829.50;4938112;29;19978;-79
2023/11/19 02:57:36;;;;;;;1.05;0.60;;;;;;;3.90;59.66;92814.75;4938314;29;20043;-79
2023/11/19 03:00:11;;;;;;;0.68;0.68;;;;;;;3.91;59.91;92814.50;4938464;29;20047;-79
2023/11/19 03:02:46;;;;;;;0.60;0.60;;;;;;;3.91;61.29;92813.72;4936293;29;20051;-79
2023/11/19 03:05:14;;;;;;;0.60;0.60;;;;;;;3.89;60.54;92823.53;4938233;29;20108;-79
2023/11/19 03:07:42;;;;;;;0.77;0.70;;;;;;;3.87;60.49;92807.44;4933662;29;20031;-79
2023/11/19 03:10:09;;;;;;;0.80;0.63;;;;;;;3.85;60.62;92804.31;4922300;29;20136;-79
2023/11/19 03:12:35;;;;;;;0.65;0.65;;;;;;;3.84;60.88;92810.53;4935960;29;20038;-79
2023/11/19 03:15:01;;;;;;;0.60;0.60;;;;;;;3.84;60.90;92811.31;4924754;29;20044;-77
2023/11/19 03:17:26;;;;;;;0.80;0.70;;;;;;;3.82;61.25;92805.56;4925117;29;20398;-79
2023/11/19 03:19:52;;;;;;;0.75;0.60;;;;;;;3.79;61.92;92811.22;4926085;29;20036;-79
2023/11/19 03:22:17;;;;;;;0.88;0.70;;;;;;;3.79;61.91;92808.63;4937373;29;20093;-79
2023/11/19 03:24:43;;;;;;;0.60;0.60;;;;;;;3.78;62.10;92807.06;4936451;29;20051;-79
2023/11/19 03:27:10;;;;;;;0.68;0.68;;;;;;;3.80;61.93;92804.25;4935847;29;20032;-79
2023/11/19 03:29:35;;;;;;;0.60;0.60;;;;;;;3.75;63.25;92804.94;4937320;29;20032;-79
2023/11/19 03:32:01;;;;;;;0.70;0.70;;;;;;;3.73;62.17;92804.41;4934432;29;20300;-79
2023/11/19 03:34:26;;;;;;;0.88;0.73;;;;;;;3.72;61.06;92795.84;4929317;29;20032;-79
2023/11/19 03:36:52;;;;;;;0.75;0.70;;;;;;;3.73;60.51;92805.19;4936380;29;20122;-79
2023/11/19 03:39:17;;;;;;;0.50;0.50;;;;;;;3.72;60.40;92797.66;4937555;29;20044;-80
2023/11/19 03:41:46;;;;;;;0.90;0.70;;;;;;;3.73;61.54;92805.19;4940378;29;20496;-79
2023/11/19 03:44:12;;;;;;;0.60;0.60;;;;;;;3.73;62.04;92805.19;4941322;29;20035;-79
2023/11/19 03:46:38;;;;;;;0.60;0.60;;;;;;;3.72;61.83;92800.25;4938905;29;20070;-79
2023/11/19 03:49:04;;;;;;;0.50;0.50;;;;;;;3.68;61.55;92781.81;4940413;29;20039;-79
2023/11/19 03:51:30;;;;;;;1.02;0.80;;;;;;;3.68;60.86;92781.03;4938245;29;20052;-79
2023/11/19 03:53:56;;;;;;;0.70;0.70;;;;;;;3.68;60.46;92786.19;4940303;29;20039;-79
2023/11/19 03:56:21;;;;;;;0.82;0.60;;;;;;;3.67;61.15;92782.03;4937859;29;20039;-79
2023/11/19 03:58:47;;;;;;;0.60;0.60;;;;;;;3.67;61.65;92775.06;4939588;29;20048;-79
2023/11/19 04:01:15;;;;;;;0.57;0.57;;;;;;;3.67;61.82;92774.25;4939003;29;20060;-78
2023/11/19 04:03:41;;;;;;;0.95;0.80;;;;;;;3.63;61.64;92768.00;4932170;29;20044;-79
2023/11/19 04:06:07;;;;;;;1.23;0.93;;;;;;;3.65;61.41;92765.97;4939649;29;20160;-79
2023/11/19 04:08:32;;;;;;;0.70;0.70;;;;;;;3.62;61.14;92763.84;4923098;29;20036;-79
2023/11/19 04:10:58;;;;;;;0.70;0.60;;;;;;;3.63;61.07;92768.00;4923168;29;20476;-79
2023/11/19 04:13:24;;;;;;;0.95;0.80;;;;;;;3.62;61.09;92766.44;4939140;29;20420;-78
2023/11/19 04:15:50;;;;;;;0.70;0.68;;;;;;;3.63;60.97;92768.00;4937763;29;20046;-79
2023/11/19 04:18:16;;;;;;;0.60;0.60;;;;;;;3.62;61.42;92756.06;4945159;29;20038;-78
2023/11/19 04:20:42;;;;;;;0.90;0.75;;;;;;;3.61;61.56;92757.88;4945027;29;20349;-79
2023/11/19 04:23:11;;;;;;;0.85;0.80;;;;;;;3.58;63.03;92766.13;4939477;29;20079;-79
2023/11/19 04:25:37;;;;;;;1.10;0.85;;;;;;;3.59;60.88;92761.72;4937607;29;20110;-79
2023/11/19 04:28:03;;;;;;;0.80;0.70;;;;;;;3.55;60.77;92754.41;4933765;29;20075;-79
2023/11/19 04:30:28;;;;;;;0.95;0.70;;;;;;;3.58;60.93;92760.16;4939441;29;20070;-79
2023/11/19 04:32:54;;;;;;;0.60;0.60;;;;;;;3.58;60.82;92765.31;4937398;29;20500;-79
2023/11/19 04:35:20;;;;;;;1.00;0.70;;;;;;;3.58;61.27;92765.31;4936415;29;20045;-79
2023/11/19 04:37:47;;;;;;;0.73;0.55;;;;;;;3.59;61.66;92762.50;4939492;29;20064;-78
2023/11/19 04:40:13;;;;;;;0.73;0.65;;;;;;;3.60;61.92;92755.53;4939270;29;20034;-79
2023/11/19 04:42:41;;;;;;;0.70;0.70;;;;;;;3.59;61.54;92746.19;4938131;29;20480;-79
2023/11/19 04:45:07;;;;;;;0.60;0.60;;;;;;;3.60;61.11;92753.72;4932052;29;20043;-79
2023/11/19 04:47:34;;;;;;;0.60;0.60;;;;;;;3.58;60.69;92749.78;4938937;29;20031;-79
2023/11/19 04:49:59;;;;;;;1.83;0.70;;;;;;;3.59;61.10;92752.16;4937135;29;20059;-79
2023/11/19 04:52:25;;;;;;;0.75;0.60;;;;;;;3.61;60.88;92734.59;4937342;29;20512;-79
2023/11/19 04:54:51;;;;;;;0.65;0.65;;;;;;;3.60;60.83;92738.19;4939629;29;20709;-79
2023/11/19 04:57:17;;;;;;;0.80;0.80;;;;;;;3.59;61.53;92741.03;4932019;29;20048;-79
2023/11/19 04:59:42;;;;;;;0.70;0.70;;;;;;;3.60;61.14;92745.16;4937857;29;20043;-79
2023/11/19 05:02:08;;;;;;;0.70;0.70;;;;;;;3.60;61.97;92742.56;4938953;29;20035;-79
2023/11/19 05:04:34;;;;;;;0.93;0.70;;;;;;;3.56;62.58;92734.50;4939016;29;20063;-79
2023/11/19 05:07:00;;;;;;;0.70;0.70;;;;;;;3.55;63.60;92738.09;4935720;29;20035;-79
2023/11/19 05:09:26;;;;;;;0.80;0.80;;;;;;;3.53;62.60;92740.97;4938988;29;20031;-79
2023/11/19 05:11:52;;;;;;;0.50;0.50;;;;;;;3.50;62.20;92733.66;4939339;29;20047;-79
2023/11/19 05:14:19;;;;;;;1.05;0.82;;;;;;;3.50;63.16;92740.63;4939136;29;20035;-79
2023/11/19 05:16:45;;;;;;;0.80;0.70;;;;;;;3.47;62.64;92733.34;4938987;29;20131;-79
2023/11/19 05:19:11;;;;;;;0.70;0.70;;;;;;;3.44;63.20;92737.16;4938798;29;20392;-79
2023/11/19 05:21:37;;;;;;;0.98;0.80;;;;;;;3.44;64.38;92732.00;4937595;29;20095;-79
2023/11/19 05:24:06;;;;;;;0.70;0.70;;;;;;;3.40;63.84;92722.34;4935782;29;20487;-79
2023/11/19 05:26:31;;;;;;;0.73;0.70;;;;;;;3.39;64.18;92720.78;4935096;29;20036;-79
2023/11/19 05:28:57;;;;;;;1.00;0.82;;;;;;;3.35;64.93;92715.28;4938052;29;20043;-79
2023/11/19 05:31:23;;;;;;;1.27;0.90;;;;;;;3.32;64.46;92724.31;4937801;29;20067;-79
2023/11/19 05:33:48;;;;;;;1.00;0.80;;;;;;;3.31;63.66;92724.53;4937591;29;20043;-79
2023/11/19 05:36:14;;;;;;;0.70;0.70;;;;;;;3.29;63.83;92721.44;4937189;29;20051;-79
2023/11/19 05:38:40;;;;;;;1.05;0.65;;;;;;;3.30;64.10;92721.19;4937585;29;20036;-79
2023/11/19 05:41:06;;;;;;;0.88;0.60;;;;;;;3.31;65.05;92720.16;4938548;29;20568;-78
2023/11/19 05:43:32;;;;;;;0.73;0.73;;;;;;;3.27;65.61;92716.47;4937570;29;20043;-79
2023/11/19 05:45:58;;;;;;;1.15;0.80;;;;;;;3.26;64.80;92720.06;4936134;29;20034;-79
2023/11/19 05:48:26;;;;;;;1.00;0.90;;;;;;;3.24;64.71;92719.53;4937912;29;20043;-79
2023/11/19 05:50:51;;;;;;;1.98;0.90;;;;;;;3.24;64.65;92718.75;4937993;29;20039;-79
2023/11/19 05:53:17;;;;;;;0.60;0.60;;;;;;;3.24;65.64;92716.16;4936176;29;20038;-79
2023/11/19 05:55:54;;;;;;;1.00;0.80;;;;;;;3.22;66.20;92711.22;4936881;29;20044;-79
2023/11/19 05:58:23;;;;;;;0.80;0.80;;;;;;;3.21;65.95;92714.81;4936661;29;20036;-79
2023/11/19 06:00:50;;;;;;;0.85;0.80;;;;;;;3.21;65.35;92709.66;4930459;29;20037;-79
2023/11/19 06:03:16;;;;;;;0.80;0.70;;;;;;;3.22;65.56;92705.25;4936947;29;20043;-79
2023/11/19 06:05:45;;;;;;;1.52;0.88;;;;;;;3.18;65.60;92706.75;4936336;29;20075;-79
2023/11/19 06:08:11;;;;;;;1.05;0.70;;;;;;;3.17;65.41;92713.72;4937134;29;20522;-79
2023/11/19 06:10:39;;;;;;;1.00;0.90;;;;;;;3.17;65.61;92703.38;4936304;29;20043;-79
2023/11/19 06:13:05;;;;;;;0.80;0.70;;;;;;;3.18;66.20;92704.97;4944076;29;20039;-79
2023/11/19 06:15:32;;;;;;;0.70;0.70;;;;;;;3.19;66.89;92705.72;4928423;29;20079;-79
2023/11/19 06:18:01;;;;;;;0.60;0.60;;;;;;;3.20;67.66;92702.13;4933368;29;20031;-79
2023/11/19 06:20:28;;;;;;;0.95;0.80;;;;;;;3.19;68.12;92695.38;4938238;29;20039;-79
2023/11/19 06:22:54;;;;;;;0.60;0.60;;;;;;;3.20;68.30;92702.13;4937215;29;20044;-78
2023/11/19 06:25:20;;;;;;;0.50;0.50;;;;;;;3.20;66.97;92696.94;4921031;29;20456;-78
2023/11/19 06:27:45;;;;;;;0.95;0.80;;;;;;;3.20;65.76;92700.34;4926414;29;20035;-79
2023/11/19 06:30:12;;;;;;;0.70;0.70;;;;;;;3.22;65.63;92705.25;4937252;29;20179;-79
2023/11/19 06:32:37;;;;;;;0.82;0.82;;;;;;;3.23;65.38;92693.91;4936797;29;20063;-78
2023/11/19 06:35:04;;;;;;;0.98;0.88;;;;;;;3.18;64.93;92688.66;4930033;29;20027;-79
2023/11/19 06:37:30;;;;;;;1.00;0.80;;;;;;;3.27;64.13;92703.53;4935528;29;20040;-79
2023/11/19 06:39:56;;;;;;;0.70;0.63;;;;;;;3.28;64.02;92693.97;4938998;29;20060;-80
2023/11/19 06:42:21;;;;;;;0.70;0.70;;;;;;;3.37;63.62;92686.59;4939537;29;20127;-82
2023/11/19 06:44:47;;;;;;;0.73;0.70;;;;;;;3.43;64.56;92685.66;4930740;29;20059;-82
2023/11/19 06:47:13;;;;;;;0.70;0.70;;;;;;;3.50;65.75;92697.41;4936773;29;20038;-82
2023/11/19 06:49:38;;;;;;;0.70;0.70;;;;;;;3.64;65.88;92710.03;4939091;29;20028;-81
2023/11/19 06:52:04;;;;;;;0.80;0.80;;;;;;;4.02;64.86;92711.81;4937417;29;20040;-81
2023/11/19 06:54:31;;;;;;;0.85;0.77;;;;;;;4.42;63.66;92707.38;4938143;29;20431;-82
2023/11/19 06:56:57;;;;;;;1.13;0.73;;;;;;;5.40;58.65;92704.66;4937995;29;20039;-81
2023/11/19 06:59:23;;;;;;;0.60;0.60;;;;;;;6.52;56.46;92711.53;4937795;29;20039;-80
2023/11/19 07:01:49;;;;;;;1.23;0.80;;;;;;;7.49;52.29;92704.63;4939158;29;20047;-80
2023/11/19 07:04:14;;;;;;;0.90;0.80;;;;;;;8.58;48.99;92702.59;4938496;29;20452;-82
2023/11/19 07:06:43;;;;;;;0.77;0.73;;;;;;;9.52;43.56;92692.09;4938555;29;20032;-83
2023/11/19 07:09:09;;;;;;;2.75;0.90;;;;;;;10.14;40.72;92695.69;4937615;29;20147;-81
2023/11/19 07:11:36;;;;;;;0.70;0.70;;;;;;;10.91;39.97;92702.69;4935570;29;20141;-80
2023/11/19 07:14:03;;;;;;;0.85;0.75;;;;;;;11.32;38.20;92691.63;4936594;29;20398;-82
2023/11/19 07:16:29;;;;;;;0.65;0.60;;;;;;;11.72;37.86;92694.69;4936958;29;20059;-82
2023/11/19 07:18:55;;;;;;;1.30;0.90;;;;;;;12.42;36.45;92696.34;4940653;29;20035;-82
2023/11/19 07:21:20;;;;;;;0.73;0.70;;;;;;;12.63;35.09;92696.75;4941277;29;20130;-82
2023/11/19 07:23:46;;;;;;;0.65;0.65;;;;;;;13.28;33.81;92689.63;4940850;29;20047;-82
2023/11/19 07:26:12;;;;;;;0.70;0.70;;;;;;;13.98;32.95;92684.84;4942126;29;20030;-80
2023/11/19 07:28:39;;;;;;;0.70;0.70;;;;;;;14.76;31.06;92691.22;4920830;29;20036;-84
2023/11/19 07:31:07;;;;;;;1.02;0.68;;;;;;;15.30;31.61;92701.53;4938589;29;20062;-81
2023/11/19 07:33:33;;;;;;;0.75;0.70;;;;;;;16.82;28.31;92688.97;4932819;29;20035;-82
2023/11/19 07:35:59;;;;;;;0.52;0.52;;;;;;;17.02;26.51;92681.38;4959336;29;20045;-83
2023/11/19 07:38:25;;;;;;;0.77;0.65;;;;;;;16.98;28.46;92685.78;4960235;29;20047;-83
2023/11/19 07:40:50;;;;;;;0.90;0.70;;;;;;;17.02;26.60;92692.75;4958670;28;20031;-83
2023/11/19 07:43:16;;;;;;;0.63;0.63;;;;;;;17.42;26.71;92691.53;4943423;29;20071;-82
2023/11/19 07:45:44;;;;;;;0.55;0.50;;;;;;;16.79;28.63;92686.94;4936515;29;20075;-82
2023/11/19 07:48:12;;;;;;;0.50;0.50;;;;;;;17.18;29.06;92700.91;4938417;29;20035;-85
2023/11/19 07:50:40;;;;;;;0.60;0.60;;;;;;;18.44;27.68;92700.75;4928847;29;20038;-82
2023/11/19 07:53:07;;;;;;;0.73;0.60;;;;;;;18.78;26.91;92696.16;4953284;29;20435;-82
2023/11/19 07:55:33;;;;;;;1.00;0.90;;;;;;;18.84;26.85;92694.03;4946366;29;20042;-82
2023/11/19 07:57:59;;;;;;;1.35;0.95;;;;;;;18.99;26.94;92684.66;4958701;28;20035;-82
2023/11/19 08:00:24;;;;;;;0.60;0.60;;;;;;;19.87;25.88;92698.19;4955635;29;20518;-84
2023/11/19 08:02:50;;;;;;;1.15;0.60;;;;;;;20.91;24.36;92701.56;4940772;29;20078;-81
2023/11/19 08:05:15;;;;;;;0.75;0.75;;;;;;;19.80;24.32;92703.28;4953650;29;20031;-81
2023/11/19 08:07:41;;;;;;;0.70;0.70;;;;;;;19.32;26.02;92703.84;4946375;29;20503;-81
2023/11/19 08:10:09;;;;;;;1.33;0.85;;;;;;;20.64;25.36;92707.75;4956878;29;20114;-81
2023/11/19 08:12:36;;;;;;;1.20;1.00;;;;;;;19.46;26.86;92702.72;4966843;28;20023;-81
2023/11/19 08:15:02;;;;;;;1.02;0.93;;;;;;;19.27;26.61;92712.03;4960793;28;20049;-84
2023/11/19 08:17:28;;;;;;;0.95;0.70;;;;;;;18.92;27.46;92712.50;4939167;29;20039;-81
2023/11/19 08:19:54;;;;;;;0.70;0.70;;;;;;;17.59;28.55;92709.16;4957078;29;20047;-82
2023/11/19 08:22:19;;;;;;;0.82;0.68;;;;;;;18.67;27.17;92718.88;4940993;29;20039;-81
2023/11/19 08:24:45;;;;;;;0.93;0.82;;;;;;;18.10;27.49;92723.06;4958201;28;20074;-81
2023/11/19 08:27:10;;;;;;;0.88;0.80;;;;;;;18.49;26.24;92724.38;4941727;29;20427;-82
2023/11/19 08:29:36;;;;;;;1.10;0.80;;;;;;;18.07;26.94;92727.13;4958694;29;20039;-81
2023/11/19 08:32:03;;;;;;;0.95;0.63;;;;;;;17.33;28.42;92726.00;4959610;29;20054;-81
2023/11/19 08:34:29;;;;;;;1.00;0.70;;;;;;;17.68;29.19;92723.88;4940321;29;20071;-82
2023/11/19 08:36:55;;;;;;;0.50;0.50;;;;;;;16.61;30.05;92715.31;4959299;29;20046;-81
2023/11/19 08:39:21;;;;;;;0.98;0.50;;;;;;;16.99;29.54;92719.06;4942817;29;20043;-81
2023/11/19 08:41:48;;;;;;;1.10;0.75;;;;;;;15.36;32.97;92716.13;4940547;29;20395;-82
2023/11/19 08:44:14;;;;;;;0.95;0.70;;;;;;;15.71;32.30;92715.38;4955545;29;20066;-81
2023/11/19 08:46:46;;;;;;;0.95;0.65;;;;;;;15.34;32.71;92717.53;4942886;28;20042;-81
2023/11/19 08:49:12;;;;;;;0.70;0.70;;;;;;;15.48;32.87;92712.09;4960210;29;20051;-81
2023/11/19 08:51:38;;;;;;;0.75;0.75;;;;;;;14.23;35.90;92717.63;4966422;29;20065;-80
2023/11/19 08:54:04;;;;;;;0.80;0.80;;;;;;;14.27;36.19;92713.31;4966955;29;20133;-78
2023/11/19 08:56:32;;;;;;;0.93;0.80;;;;;;;13.69;37.28;92705.28;4953096;29;20060;-81
2023/11/19 08:58:58;;;;;;;1.10;0.90;;;;;;;13.19;38.74;92701.91;4971097;29;20058;-80
2023/11/19 09:01:24;;;;;;;1.00;0.90;;;;;;;12.66;41.30;92711.91;4973551;29;20039;-78
2023/11/19 09:03:50;;;;;;;1.85;1.05;;;;;;;12.73;42.53;92714.16;4961341;29;20041;-80
2023/11/19 09:06:16;;;;;;;2.17;0.75;;;;;;;12.77;41.95;92712.50;4926115;29;20499;-81
2023/11/19 09:08:44;;;;;;;1.70;0.80;;;;;;;13.02;38.37;92713.81;4955689;29;20154;-81
2023/11/19 09:11:10;;;;;;;1.17;0.90;;;;;;;12.87;39.76;92703.63;4953957;29;20089;-80
2023/11/19 09:13:36;;;;;;;1.33;0.75;;;;;;;12.37;41.21;92700.94;4940764;29;20039;-81
2023/11/19 09:16:04;;;;;;;0.50;0.50;;;;;;;12.28;40.89;92700.84;4957615;29;20058;-82
2023/11/19 09:18:31;;;;;;;1.33;1.00;;;;;;;12.07;42.39;92695.19;4940030;29;20038;-82
2023/11/19 09:20:57;;;;;;;1.40;0.90;;;;;;;11.99;45.38;92703.72;4957709;29;20043;-81
2023/11/19 09:23:25;;;;;;;0.82;0.70;;;;;;;12.24;39.82;92705.88;4958616;29;20074;-81
2023/11/19 09:25:51;;;;;;;1.00;0.90;;;;;;;12.24;39.87;92708.50;4958313;29;20081;-80
2023/11/19 09:28:16;;;;;;;0.85;0.80;;;;;;;12.19;39.84;92713.06;4957781;28;20449;-81
2023/11/19 09:30:42;;;;;;;1.05;0.90;;;;;;;12.14;40.76;92706.06;4957578;29;20531;-81
2023/11/19 09:33:07;;;;;;;1.17;0.93;;;;;;;11.62;42.94;92700.09;4957911;29;20043;-81
2023/11/19 09:35:33;;;;;;;1.13;0.95;;;;;;;11.54;44.36;92693.66;4957242;28;20071;-81
2023/11/19 09:37:59;;;;;;;1.23;0.82;;;;;;;11.19;43.96;92695.75;4940465;29;20542;-81
2023/11/19 09:40:25;;;;;;;1.08;0.77;;;;;;;11.19;45.32;92702.81;4957885;29;20043;-82
2023/11/19 09:42:50;;;;;;;1.17;0.82;;;;;;;11.01;43.74;92712.22;4957937;29;20035;-81
2023/11/19 09:45:18;;;;;;;0.80;0.80;;;;;;;11.31;43.42;92708.41;4957462;29;20047;-80
2023/11/19 09:47:47;;;;;;;1.13;1.00;;;;;;;11.95;43.81;92707.97;4957205;28;20058;-81
2023/11/19 09:50:19;;;;;;;1.00;0.90;;;;;;;11.99;39.79;92695.84;4940202;29;20093;-81
2023/11/19 09:52:46;;;;;;;0.80;0.80;;;;;;;11.42;39.84;92704.59;4939822;29;20547;-81
2023/11/19 09:55:12;;;;;;;0.75;0.70;;;;;;;11.36;37.22;92697.09;4939789;29;20061;-83
2023/11/19 09:57:41;;;;;;;0.75;0.70;;;;;;;11.58;37.76;92696.50;4939418;29;20067;-81
2023/11/19 10:00:10;;;;;;;0.70;0.70;;;;;;;11.83;35.35;92706.56;4939340;29;20039;-80
2023/11/19 10:02:37;;;;;;;0.70;0.70;;;;;;;11.79;34.39;92705.56;4955993;29;20397;-82
2023/11/19 10:05:06;;;;;;;0.85;0.75;;;;;;;11.89;35.11;92699.44;4939665;29;20121;-80
2023/11/19 10:07:33;;;;;;;1.05;0.80;;;;;;;12.03;35.81;92683.72;4957877;28;20031;-83
2023/11/19 10:10:05;;;;;;;1.00;0.90;;;;;;;12.25;35.79;92675.94;4958587;29;20047;-81
2023/11/19 10:12:31;;;;;;;0.70;0.70;;;;;;;12.48;34.77;92707.56;4941504;29;20034;-80
2023/11/19 10:14:58;;;;;;;1.10;1.00;;;;;;;12.13;37.68;92707.13;4959024;29;20059;-80
2023/11/19 10:17:34;;;;;;;1.17;0.70;;;;;;;12.26;35.41;92695.09;4942368;29;20046;-81
2023/11/19 10:20:01;;;;;;;0.65;0.63;;;;;;;12.38;36.31;92699.84;4958365;29;20047;-80
2023/11/19 10:22:27;;;;;;;1.33;0.90;;;;;;;12.45;35.87;92687.13;4959831;29;20054;-81
2023/11/19 10:24:53;;;;;;;0.60;0.60;;;;;;;12.37;34.57;92677.31;4959484;29;20046;-82
2023/11/19 10:27:19;;;;;;;0.80;0.75;;;;;;;12.54;35.78;92677.50;4941883;29;20035;-81
2023/11/19 10:29:47;;;;;;;1.17;0.80;;;;;;;12.84;35.91;92660.34;4957244;29;20031;-81
2023/11/19 10:32:16;;;;;;;0.90;0.88;;;;;;;12.93;34.68;92665.66;4957928;29;20095;-81
2023/11/19 10:34:42;;;;;;;1.42;1.00;;;;;;;12.73;31.37;92659.00;4958240;29;20053;-80
2023/11/19 10:37:09;;;;;;;0.95;0.88;;;;;;;12.78;30.80;92664.13;4940876;29;20043;-81
2023/11/19 10:39:56;;;;;;;0.93;0.70;;;;;;;13.29;30.61;92657.03;4959669;29;20058;-81
2023/11/19 10:42:22;;;;;;;0.88;0.77;;;;;;;13.30;30.42;92640.16;4942330;29;20043;-80
2023/11/19 10:44:48;;;;;;;1.30;0.80;;;;;;;13.70;32.48;92641.03;4944398;29;20324;-82
2023/11/19 10:47:14;;;;;;;0.77;0.75;;;;;;;13.58;31.66;92640.03;4944636;29;20143;-81
2023/11/19 10:49:40;;;;;;;1.02;0.93;;;;;;;13.56;32.39;92634.31;4928105;29;20039;-80
2023/11/19 10:52:08;;;;;;;0.57;0.57;;;;;;;13.45;32.54;92631.94;4947615;29;20044;-80
2023/11/19 10:54:35;;;;;;;0.77;0.77;;;;;;;13.61;33.36;92637.59;4960633;29;20059;-79
2023/11/19 10:57:02;;;;;;;0.95;0.77;;;;;;;13.79;33.20;92640.31;4965241;29;20454;-81
2023/11/19 10:59:31;;;;;;;1.60;0.90;;;;;;;14.15;32.91;92638.31;4965600;29;20031;-81
2023/11/19 11:02:00;;;;;;;0.75;0.75;;;;;;;13.73;34.10;92640.47;4964541;29;20046;-81
2023/11/19 11:04:29;;;;;;;1.02;0.80;;;;;;;13.50;33.98;92628.41;4963457;29;20027;-81
2023/11/19 11:06:58;;;;;;;0.90;0.80;;;;;;;13.46;33.08;92633.47;4962103;29;20039;-80
2023/11/19 11:09:27;;;;;;;0.95;0.85;;;;;;;13.13;35.16;92627.66;4962440;29;20034;-82
2023/11/19 11:11:55;;;;;;;1.25;0.95;;;;;;;13.47;35.85;92614.00;4963648;29;20589;-81
2023/11/19 11:14:22;;;;;;;1.20;1.00;;;;;;;13.63;33.03;92618.88;4963408;29;20055;-80
2023/11/19 11:16:48;;;;;;;1.00;0.90;;;;;;;13.74;33.75;92612.28;4963420;29;20042;-80
2023/11/19 11:19:16;;;;;;;1.00;0.90;;;;;;;13.17;34.61;92609.44;4962799;29;20483;-80
2023/11/19 11:21:47;;;;;;;1.30;1.10;;;;;;;13.13;36.68;92606.63;4962953;29;20054;-80
2023/11/19 11:24:31;;;;;;;1.30;1.10;;;;;;;13.18;33.67;92627.53;4964147;29;20043;-80
2023/11/19 11:27:12;;;;;;;1.63;1.10;;;;;;;13.36;33.54;92628.47;4947898;29;20031;-79
2023/11/19 11:30:03;;;;;;;1.60;1.00;;;;;;;13.38;34.04;92615.81;4965001;29;20039;-80
2023/11/19 11:32:49;;;;;;;1.33;0.95;;;;;;;13.23;34.75;92624.00;4960704;29;20035;-80
2023/11/19 11:35:49;;;;;;;1.13;0.90;;;;;;;13.26;36.44;92613.69;4962694;29;20066;-80
2023/11/19 11:38:21;;;;;;;1.95;1.02;;;;;;;13.60;34.91;92616.84;4919993;29;20043;-80